Al Ain International Airport

Airport
ICAO code: 
OMAL
IATA Code: 
AAN
Summary
ICAO Region: 
MID
Location: 
Al Ain,
Serving: 
Al Ain
Elevation: 
869 ft
Coordinates: 
Aerial View: 
24° 15' 30.655" N, 55° 37' 9.98" E
Metar
Observation
OMAL 050700Z 35003KT 280V040 CAVOK 23/13 Q1020 NOSIG
Station
Al Ain International Airport
Date/Time
2021-12-05 07:00:00
Wind direction
350°
Wind speed
03 kts
Lowest cloud amount
clouds and visibility OK
Temperature
23°C
Dew point
13°C
Humidity
53%
QNH
1020 hPa
Weather condition
n/a

Description

Al Ain International Airport is an airport located 8m west north west of Al Ain, United Arab Emirates. It was opened in 31 March 1994. 14 flights and 4,000 passenger pass through the airport each week.

Climatology

Hot Desert Climate (Köppen climate classification BWh) - Hot desert climates are typically found in the subtropics where there is unbroken sunshine for the whole year due to the stable descending air and high pressure, little or no precipitation. Maximum temperatures of 40°C to 45°C are not uncommon, particularly during the warmer months of the year. During colder periods of the year, night-time temperatures can drop to freezing or below due to the exceptional radiation loss under the clear skies. However, very rarely do temperatures drop far below freezing.

Runways

Designator Length Width Surface Rops
1/19 4000 45 ASP Yes/Yes
Airport map: 
Aerial View: 

SKYbrary Partners:

Safety knowledge contributed by: